sensor_id;sensor_type;location;lat;lon;timestamp;pressure;altitude;pressure_sealevel;temperature;humidity
4392;BME280;2210;51.938;8.488;2023-06-14T00:02:28;100429.09;;;19.11;44.99
4392;BME280;2210;51.938;8.488;2023-06-14T00:06:34;100428.53;;;19.14;45.22
4392;BME280;2210;51.938;8.488;2023-06-14T00:10:35;100435.78;;;19.15;45.31
4392;BME280;2210;51.938;8.488;2023-06-14T00:14:39;100436.00;;;18.95;45.52
4392;BME280;2210;51.938;8.488;2023-06-14T00:18:40;100449.13;;;18.94;45.55
4392;BME280;2210;51.938;8.488;2023-06-14T00:22:40;100444.50;;;18.79;46.23
4392;BME280;2210;51.938;8.488;2023-06-14T00:26:43;100449.50;;;18.82;46.45
4392;BME280;2210;51.938;8.488;2023-06-14T00:30:43;100450.09;;;18.79;46.68
4392;BME280;2210;51.938;8.488;2023-06-14T00:34:46;100459.59;;;18.78;46.38
4392;BME280;2210;51.938;8.488;2023-06-14T00:38:49;100458.28;;;18.70;46.41
4392;BME280;2210;51.938;8.488;2023-06-14T00:42:49;100452.19;;;18.63;46.96
4392;BME280;2210;51.938;8.488;2023-06-14T00:46:50;100451.00;;;18.75;46.73
4392;BME280;2210;51.938;8.488;2023-06-14T00:50:51;100457.09;;;18.77;47.10
4392;BME280;2210;51.938;8.488;2023-06-14T00:54:52;100458.56;;;18.69;47.11
4392;BME280;2210;51.938;8.488;2023-06-14T00:58:58;100466.41;;;18.67;47.02
4392;BME280;2210;51.938;8.488;2023-06-14T01:03:01;100469.88;;;18.53;47.23
4392;BME280;2210;51.938;8.488;2023-06-14T01:07:20;100469.09;;;18.48;47.30
4392;BME280;2210;51.938;8.488;2023-06-14T01:11:32;100469.66;;;18.45;47.93
4392;BME280;2210;51.938;8.488;2023-06-14T01:15:44;100460.13;;;18.51;48.06
4392;BME280;2210;51.938;8.488;2023-06-14T01:19:46;100457.78;;;18.63;48.04
4392;BME280;2210;51.938;8.488;2023-06-14T01:23:46;100465.47;;;18.47;47.65
4392;BME280;2210;51.938;8.488;2023-06-14T01:27:57;100471.59;;;18.49;48.19
4392;BME280;2210;51.938;8.488;2023-06-14T01:31:59;100462.16;;;18.45;48.51
4392;BME280;2210;51.938;8.488;2023-06-14T01:36:01;100473.91;;;18.42;49.07
4392;BME280;2210;51.938;8.488;2023-06-14T01:40:04;100471.75;;;18.34;48.53
4392;BME280;2210;51.938;8.488;2023-06-14T01:44:07;100477.44;;;18.13;49.27
4392;BME280;2210;51.938;8.488;2023-06-14T01:48:10;100484.31;;;17.86;49.55
4392;BME280;2210;51.938;8.488;2023-06-14T01:52:10;100492.91;;;17.95;49.48
4392;BME280;2210;51.938;8.488;2023-06-14T01:56:10;100491.47;;;18.03;49.16
4392;BME280;2210;51.938;8.488;2023-06-14T02:00:14;100487.84;;;18.02;49.08
4392;BME280;2210;51.938;8.488;2023-06-14T02:04:19;100482.78;;;18.10;49.93
4392;BME280;2210;51.938;8.488;2023-06-14T02:08:19;100489.31;;;17.95;50.19
4392;BME280;2210;51.938;8.488;2023-06-14T02:12:19;100493.81;;;17.80;50.38
4392;BME280;2210;51.938;8.488;2023-06-14T02:16:20;100483.25;;;17.72;50.36
4392;BME280;2210;51.938;8.488;2023-06-14T02:20:20;100489.66;;;17.73;50.33
4392;BME280;2210;51.938;8.488;2023-06-14T02:24:20;100496.94;;;17.63;50.69
4392;BME280;2210;51.938;8.488;2023-06-14T02:28:21;100489.97;;;17.66;50.75
4392;BME280;2210;51.938;8.488;2023-06-14T02:32:27;100506.47;;;17.47;51.10
4392;BME280;2210;51.938;8.488;2023-06-14T02:36:28;100505.41;;;17.38;51.45
4392;BME280;2210;51.938;8.488;2023-06-14T02:40:31;100502.66;;;17.22;52.34
4392;BME280;2210;51.938;8.488;2023-06-14T02:44:31;100505.75;;;17.21;51.94
4392;BME280;2210;51.938;8.488;2023-06-14T02:48:32;100496.56;;;17.20;51.93
4392;BME280;2210;51.938;8.488;2023-06-14T02:52:41;100498.78;;;17.18;52.10
4392;BME280;2210;51.938;8.488;2023-06-14T02:56:44;100503.25;;;17.14;52.09
4392;BME280;2210;51.938;8.488;2023-06-14T03:00:44;100500.75;;;17.07;52.81
4392;BME280;2210;51.938;8.488;2023-06-14T03:04:45;100513.56;;;16.98;52.59
4392;BME280;2210;51.938;8.488;2023-06-14T03:08:47;100512.22;;;16.90;53.06
4392;BME280;2210;51.938;8.488;2023-06-14T03:12:48;100514.16;;;16.95;53.02
4392;BME280;2210;51.938;8.488;2023-06-14T03:16:50;100523.06;;;16.92;53.82
4392;BME280;2210;51.938;8.488;2023-06-14T03:20:50;100512.75;;;16.77;53.73
4392;BME280;2210;51.938;8.488;2023-06-14T03:24:54;100516.34;;;16.77;54.00
4392;BME280;2210;51.938;8.488;2023-06-14T03:28:55;100523.03;;;16.76;54.29
4392;BME280;2210;51.938;8.488;2023-06-14T03:32:58;100527.25;;;16.94;54.38
4392;BME280;2210;51.938;8.488;2023-06-14T03:37:01;100525.81;;;16.97;54.13
4392;BME280;2210;51.938;8.488;2023-06-14T03:41:10;100526.66;;;16.82;54.78
4392;BME280;2210;51.938;8.488;2023-06-14T03:45:10;100530.28;;;16.88;54.50
4392;BME280;2210;51.938;8.488;2023-06-14T03:49:11;100534.47;;;16.85;54.91
4392;BME280;2210;51.938;8.488;2023-06-14T03:53:15;100551.44;;;16.83;54.78
4392;BME280;2210;51.938;8.488;2023-06-14T03:57:15;100553.41;;;16.73;55.21
4392;BME280;2210;51.938;8.488;2023-06-14T04:01:18;100552.81;;;16.71;55.53
4392;BME280;2210;51.938;8.488;2023-06-14T04:05:21;100554.22;;;16.68;55.71
4392;BME280;2210;51.938;8.488;2023-06-14T04:09:26;100561.47;;;16.69;55.67
4392;BME280;2210;51.938;8.488;2023-06-14T04:13:26;100574.81;;;16.77;56.35
4392;BME280;2210;51.938;8.488;2023-06-14T04:17:33;100572.88;;;16.88;55.59
4392;BME280;2210;51.938;8.488;2023-06-14T04:21:37;100585.44;;;16.91;55.84
4392;BME280;2210;51.938;8.488;2023-06-14T04:25:40;100593.75;;;16.85;55.91
4392;BME280;2210;51.938;8.488;2023-06-14T04:29:40;100587.41;;;16.90;55.92
4392;BME280;2210;51.938;8.488;2023-06-14T04:33:43;100588.25;;;16.96;56.03
4392;BME280;2210;51.938;8.488;2023-06-14T04:37:43;100601.88;;;17.02;56.44
4392;BME280;2210;51.938;8.488;2023-06-14T04:41:45;100588.78;;;17.13;56.25
4392;BME280;2210;51.938;8.488;2023-06-14T04:45:45;100601.56;;;17.14;56.30
4392;BME280;2210;51.938;8.488;2023-06-14T04:49:47;100600.47;;;17.21;55.81
4392;BME280;2210;51.938;8.488;2023-06-14T04:53:53;100608.78;;;17.46;55.53
4392;BME280;2210;51.938;8.488;2023-06-14T04:57:57;100606.81;;;17.52;54.78
4392;BME280;2210;51.938;8.488;2023-06-14T05:01:57;100616.84;;;17.58;55.58
4392;BME280;2210;51.938;8.488;2023-06-14T05:05:57;100619.88;;;17.72;55.32
4392;BME280;2210;51.938;8.488;2023-06-14T05:09:57;100618.41;;;17.90;55.14
4392;BME280;2210;51.938;8.488;2023-06-14T05:14:01;100625.41;;;18.03;55.08
4392;BME280;2210;51.938;8.488;2023-06-14T05:18:01;100622.63;;;17.98;54.94
4392;BME280;2210;51.938;8.488;2023-06-14T05:22:02;100620.91;;;18.12;54.24
4392;BME280;2210;51.938;8.488;2023-06-14T05:26:03;100625.91;;;18.15;53.98
4392;BME280;2210;51.938;8.488;2023-06-14T05:30:05;100620.22;;;18.31;54.10
4392;BME280;2210;51.938;8.488;2023-06-14T05:34:08;100624.06;;;18.45;53.72
4392;BME280;2210;51.938;8.488;2023-06-14T05:38:14;100630.78;;;18.39;53.89
4392;BME280;2210;51.938;8.488;2023-06-14T05:42:17;100623.31;;;18.74;53.53
4392;BME280;2210;51.938;8.488;2023-06-14T05:46:17;100627.16;;;18.44;53.34
4392;BME280;2210;51.938;8.488;2023-06-14T05:50:22;100635.03;;;18.76;53.65
4392;BME280;2210;51.938;8.488;2023-06-14T05:54:31;100640.06;;;18.74;53.40
4392;BME280;2210;51.938;8.488;2023-06-14T05:58:34;100638.94;;;18.80;53.04
4392;BME280;2210;51.938;8.488;2023-06-14T06:02:37;100642.25;;;19.22;53.24
4392;BME280;2210;51.938;8.488;2023-06-14T06:06:41;100641.75;;;19.15;53.26
4392;BME280;2210;51.938;8.488;2023-06-14T06:10:41;100649.88;;;19.46;52.86
4392;BME280;2210;51.938;8.488;2023-06-14T06:14:45;100651.38;;;19.62;52.13
4392;BME280;2210;51.938;8.488;2023-06-14T06:18:45;100652.72;;;19.70;51.26
4392;BME280;2210;51.938;8.488;2023-06-14T06:22:45;100647.34;;;19.74;51.62
4392;BME280;2210;51.938;8.488;2023-06-14T06:26:52;100650.31;;;19.58;51.65
4392;BME280;2210;51.938;8.488;2023-06-14T06:30:52;100652.31;;;19.52;50.98
4392;BME280;2210;51.938;8.488;2023-06-14T06:34:53;100645.84;;;19.86;51.53
4392;BME280;2210;51.938;8.488;2023-06-14T06:38:59;100653.63;;;19.90;49.44
4392;BME280;2210;51.938;8.488;2023-06-14T06:43:00;100657.09;;;19.76;50.66
4392;BME280;2210;51.938;8.488;2023-06-14T06:47:00;100666.13;;;19.68;48.55
4392;BME280;2210;51.938;8.488;2023-06-14T06:51:03;100666.41;;;19.71;49.33
4392;BME280;2210;51.938;8.488;2023-06-14T06:55:06;100667.75;;;19.45;48.55
4392;BME280;2210;51.938;8.488;2023-06-14T06:59:10;100670.59;;;19.40;48.71
4392;BME280;2210;51.938;8.488;2023-06-14T07:03:10;100679.53;;;19.07;49.92
4392;BME280;2210;51.938;8.488;2023-06-14T07:07:18;100675.72;;;19.62;49.86
4392;BME280;2210;51.938;8.488;2023-06-14T07:11:18;100670.66;;;19.64;48.89
4392;BME280;2210;51.938;8.488;2023-06-14T07:15:22;100668.00;;;19.78;48.88
4392;BME280;2210;51.938;8.488;2023-06-14T07:19:40;100669.81;;;20.17;50.06
4392;BME280;2210;51.938;8.488;2023-06-14T07:23:40;100679.84;;;20.23;48.26
4392;BME280;2210;51.938;8.488;2023-06-14T07:27:45;100677.78;;;19.80;49.31
4392;BME280;2210;51.938;8.488;2023-06-14T07:31:49;100685.06;;;19.81;48.97
4392;BME280;2210;51.938;8.488;2023-06-14T07:35:55;100694.56;;;19.80;48.73
4392;BME280;2210;51.938;8.488;2023-06-14T07:39:55;100685.25;;;19.90;49.62
4392;BME280;2210;51.938;8.488;2023-06-14T07:43:56;100697.84;;;19.93;48.03
4392;BME280;2210;51.938;8.488;2023-06-14T07:47:56;100698.81;;;20.02;48.76
4392;BME280;2210;51.938;8.488;2023-06-14T07:51:56;100695.25;;;19.96;48.42
4392;BME280;2210;51.938;8.488;2023-06-14T07:55:57;100696.44;;;20.14;47.94
4392;BME280;2210;51.938;8.488;2023-06-14T07:59:57;100698.94;;;19.92;48.42
4392;BME280;2210;51.938;8.488;2023-06-14T08:03:57;100697.53;;;19.94;48.76
4392;BME280;2210;51.938;8.488;2023-06-14T08:07:59;100698.34;;;20.43;48.07
4392;BME280;2210;51.938;8.488;2023-06-14T08:12:00;100691.28;;;20.70;47.15
4392;BME280;2210;51.938;8.488;2023-06-14T08:16:07;100690.00;;;20.81;47.60
4392;BME280;2210;51.938;8.488;2023-06-14T08:20:19;100701.16;;;20.86;47.54
4392;BME280;2210;51.938;8.488;2023-06-14T08:24:21;100700.94;;;20.59;48.38
4392;BME280;2210;51.938;8.488;2023-06-14T08:28:39;100693.44;;;20.78;49.13
4392;BME280;2210;51.938;8.488;2023-06-14T08:32:40;100695.22;;;21.07;46.76
4392;BME280;2210;51.938;8.488;2023-06-14T08:36:40;100697.06;;;20.98;46.88
4392;BME280;2210;51.938;8.488;2023-06-14T08:40:41;100693.72;;;21.15;48.03
4392;BME280;2210;51.938;8.488;2023-06-14T08:44:49;100693.53;;;20.68;47.86
4392;BME280;2210;51.938;8.488;2023-06-14T08:48:54;100707.53;;;20.25;49.92
4392;BME280;2210;51.938;8.488;2023-06-14T08:53:16;100698.19;;;20.53;49.84
4392;BME280;2210;51.938;8.488;2023-06-14T08:57:23;100701.91;;;20.92;49.60
4392;BME280;2210;51.938;8.488;2023-06-14T09:01:25;100698.47;;;21.14;48.24
4392;BME280;2210;51.938;8.488;2023-06-14T09:05:36;100704.72;;;21.44;48.35
4392;BME280;2210;51.938;8.488;2023-06-14T09:09:40;100701.78;;;21.54;46.86
4392;BME280;2210;51.938;8.488;2023-06-14T09:13:49;100721.59;;;20.63;48.20
4392;BME280;2210;51.938;8.488;2023-06-14T09:17:53;100711.69;;;20.27;49.81
4392;BME280;2210;51.938;8.488;2023-06-14T09:21:56;100710.13;;;20.40;49.26
4392;BME280;2210;51.938;8.488;2023-06-14T09:25:56;100720.53;;;20.59;48.65
4392;BME280;2210;51.938;8.488;2023-06-14T09:30:03;100712.38;;;20.86;48.40
4392;BME280;2210;51.938;8.488;2023-06-14T09:34:07;100716.16;;;21.48;48.36
4392;BME280;2210;51.938;8.488;2023-06-14T09:38:16;100724.63;;;21.29;47.91
4392;BME280;2210;51.938;8.488;2023-06-14T09:42:19;100715.06;;;21.30;48.29
4392;BME280;2210;51.938;8.488;2023-06-14T09:46:23;100716.53;;;21.08;47.64
4392;BME280;2210;51.938;8.488;2023-06-14T09:50:23;100714.22;;;21.29;49.00
4392;BME280;2210;51.938;8.488;2023-06-14T09:54:30;100711.19;;;21.45;46.95
4392;BME280;2210;51.938;8.488;2023-06-14T09:58:33;100715.03;;;21.82;46.45
4392;BME280;2210;51.938;8.488;2023-06-14T10:02:36;100714.44;;;21.33;46.44
4392;BME280;2210;51.938;8.488;2023-06-14T10:06:40;100720.03;;;21.99;45.33
4392;BME280;2210;51.938;8.488;2023-06-14T10:10:50;100716.84;;;21.59;44.56
4392;BME280;2210;51.938;8.488;2023-06-14T10:14:51;100709.94;;;21.84;44.23
4392;BME280;2210;51.938;8.488;2023-06-14T10:19:06;100711.03;;;21.69;43.48
4392;BME280;2210;51.938;8.488;2023-06-14T10:23:10;100696.97;;;22.02;44.63
4392;BME280;2210;51.938;8.488;2023-06-14T10:27:13;100707.78;;;22.09;44.47
4392;BME280;2210;51.938;8.488;2023-06-14T10:31:14;100710.38;;;21.91;45.21
4392;BME280;2210;51.938;8.488;2023-06-14T10:35:18;100705.03;;;21.76;45.05
4392;BME280;2210;51.938;8.488;2023-06-14T10:39:21;100704.22;;;21.89;45.73
4392;BME280;2210;51.938;8.488;2023-06-14T10:43:25;100708.28;;;22.24;45.32
4392;BME280;2210;51.938;8.488;2023-06-14T10:47:35;100703.84;;;22.23;44.27
4392;BME280;2210;51.938;8.488;2023-06-14T10:51:53;100698.53;;;21.94;44.44
4392;BME280;2210;51.938;8.488;2023-06-14T10:56:06;100692.81;;;22.13;44.37
4392;BME280;2210;51.938;8.488;2023-06-14T11:00:08;100703.00;;;22.23;44.86
4392;BME280;2210;51.938;8.488;2023-06-14T11:04:46;100685.31;;;22.50;44.45
4392;BME280;2210;51.938;8.488;2023-06-14T11:09:12;100680.44;;;22.14;43.91
4392;BME280;2210;51.938;8.488;2023-06-14T11:13:26;100673.03;;;22.46;44.58
4392;BME280;2210;51.938;8.488;2023-06-14T11:17:29;100684.03;;;22.84;44.52
4392;BME280;2210;51.938;8.488;2023-06-14T11:21:33;100688.75;;;22.47;43.83
4392;BME280;2210;51.938;8.488;2023-06-14T11:25:40;100684.28;;;22.60;44.70
4392;BME280;2210;51.938;8.488;2023-06-14T11:29:49;100682.75;;;22.90;44.91
4392;BME280;2210;51.938;8.488;2023-06-14T11:34:28;100675.94;;;22.69;44.29
4392;BME280;2210;51.938;8.488;2023-06-14T11:38:36;100667.03;;;23.12;43.62
4392;BME280;2210;51.938;8.488;2023-06-14T11:42:41;100669.56;;;23.14;43.42
4392;BME280;2210;51.938;8.488;2023-06-14T11:46:43;100666.75;;;23.36;42.91
4392;BME280;2210;51.938;8.488;2023-06-14T11:50:43;100657.78;;;23.12;40.78
4392;BME280;2210;51.938;8.488;2023-06-14T11:54:48;100659.97;;;23.37;41.31
4392;BME280;2210;51.938;8.488;2023-06-14T11:58:52;100672.84;;;22.93;43.03
4392;BME280;2210;51.938;8.488;2023-06-14T12:02:59;100680.84;;;23.00;41.18
4392;BME280;2210;51.938;8.488;2023-06-14T12:07:13;100672.78;;;22.84;41.13
4392;BME280;2210;51.938;8.488;2023-06-14T12:11:59;100657.56;;;23.08;42.63
4392;BME280;2210;51.938;8.488;2023-06-14T12:16:01;100647.28;;;23.80;42.31
4392;BME280;2210;51.938;8.488;2023-06-14T12:20:06;100664.25;;;23.35;42.07
4392;BME280;2210;51.938;8.488;2023-06-14T12:24:27;100660.13;;;23.64;42.01
4392;BME280;2210;51.938;8.488;2023-06-14T12:28:34;100655.13;;;23.29;41.02
4392;BME280;2210;51.938;8.488;2023-06-14T12:32:37;100647.44;;;23.21;41.09
4392;BME280;2210;51.938;8.488;2023-06-14T12:36:40;100653.28;;;23.56;40.99
4392;BME280;2210;51.938;8.488;2023-06-14T12:41:00;100666.63;;;23.42;41.66
4392;BME280;2210;51.938;8.488;2023-06-14T12:45:03;100654.28;;;23.29;41.62
4392;BME280;2210;51.938;8.488;2023-06-14T12:49:03;100647.16;;;23.08;40.65
4392;BME280;2210;51.938;8.488;2023-06-14T12:53:06;100655.03;;;23.20;42.56
4392;BME280;2210;51.938;8.488;2023-06-14T12:57:30;100643.19;;;23.55;40.79
4392;BME280;2210;51.938;8.488;2023-06-14T13:01:46;100638.97;;;23.75;39.67
4392;BME280;2210;51.938;8.488;2023-06-14T13:05:50;100652.34;;;24.01;39.17
4392;BME280;2210;51.938;8.488;2023-06-14T13:09:53;100648.47;;;23.88;41.09
4392;BME280;2210;51.938;8.488;2023-06-14T13:13:56;100646.06;;;23.72;40.36
4392;BME280;2210;51.938;8.488;2023-06-14T13:17:57;100648.75;;;23.46;40.43
4392;BME280;2210;51.938;8.488;2023-06-14T13:21:57;100653.25;;;23.24;39.59
4392;BME280;2210;51.938;8.488;2023-06-14T13:25:57;100639.81;;;23.76;40.18
4392;BME280;2210;51.938;8.488;2023-06-14T13:29:57;100646.03;;;23.95;40.44
4392;BME280;2210;51.938;8.488;2023-06-14T13:33:58;100646.72;;;23.92;39.09
4392;BME280;2210;51.938;8.488;2023-06-14T13:37:58;100645.91;;;23.69;40.03
4392;BME280;2210;51.938;8.488;2023-06-14T13:41:58;100649.00;;;23.90;40.72
4392;BME280;2210;51.938;8.488;2023-06-14T13:45:59;100641.84;;;23.84;39.64
4392;BME280;2210;51.938;8.488;2023-06-14T13:49:59;100648.41;;;23.70;40.18
4392;BME280;2210;51.938;8.488;2023-06-14T13:53:59;100662.94;;;23.64;40.53
4392;BME280;2210;51.938;8.488;2023-06-14T13:57:59;100646.63;;;23.83;39.41
4392;BME280;2210;51.938;8.488;2023-06-14T14:02:00;100647.44;;;24.15;40.62
4392;BME280;2210;51.938;8.488;2023-06-14T14:06:01;100635.56;;;24.36;40.02
4392;BME280;2210;51.938;8.488;2023-06-14T14:10:02;100628.56;;;23.76;40.41
4392;BME280;2210;51.938;8.488;2023-06-14T14:14:02;100634.53;;;23.83;40.44
4392;BME280;2210;51.938;8.488;2023-06-14T14:18:03;100644.25;;;23.36;40.32
4392;BME280;2210;51.938;8.488;2023-06-14T14:22:04;100637.63;;;23.41;40.95
4392;BME280;2210;51.938;8.488;2023-06-14T14:26:04;100641.34;;;23.50;41.62
4392;BME280;2210;51.938;8.488;2023-06-14T14:30:05;100643.09;;;23.15;40.51
4392;BME280;2210;51.938;8.488;2023-06-14T14:34:05;100648.81;;;23.10;40.25
4392;BME280;2210;51.938;8.488;2023-06-14T14:38:05;100644.94;;;23.19;41.47
4392;BME280;2210;51.938;8.488;2023-06-14T14:42:06;100650.31;;;23.52;41.17
4392;BME280;2210;51.938;8.488;2023-06-14T14:46:07;100643.91;;;23.69;40.92
4392;BME280;2210;51.938;8.488;2023-06-14T14:50:08;100651.69;;;23.41;41.01
4392;BME280;2210;51.938;8.488;2023-06-14T14:54:09;100654.84;;;23.17;40.95
4392;BME280;2210;51.938;8.488;2023-06-14T14:58:09;100644.44;;;23.17;42.66
4392;BME280;2210;51.938;8.488;2023-06-14T15:02:10;100646.84;;;23.10;42.76
4392;BME280;2210;51.938;8.488;2023-06-14T15:06:10;100647.75;;;22.97;43.30
4392;BME280;2210;51.938;8.488;2023-06-14T15:10:11;100637.88;;;23.08;43.03
4392;BME280;2210;51.938;8.488;2023-06-14T15:14:11;100645.69;;;22.88;42.69
4392;BME280;2210;51.938;8.488;2023-06-14T15:18:11;100649.13;;;23.08;42.54
4392;BME280;2210;51.938;8.488;2023-06-14T15:22:12;100637.00;;;23.44;42.18
4392;BME280;2210;51.938;8.488;2023-06-14T15:26:12;100637.00;;;23.76;40.38
4392;BME280;2210;51.938;8.488;2023-06-14T15:30:12;100636.88;;;23.81;41.32
4392;BME280;2210;51.938;8.488;2023-06-14T15:34:13;100633.63;;;23.65;41.52
4392;BME280;2210;51.938;8.488;2023-06-14T15:38:13;100640.38;;;23.55;41.75
4392;BME280;2210;51.938;8.488;2023-06-14T15:42:16;100634.44;;;23.34;42.31
4392;BME280;2210;51.938;8.488;2023-06-14T15:46:17;100648.59;;;23.20;43.50
4392;BME280;2210;51.938;8.488;2023-06-14T15:50:19;100637.22;;;23.25;43.78
4392;BME280;2210;51.938;8.488;2023-06-14T15:54:21;100634.69;;;23.46;44.31
4392;BME280;2210;51.938;8.488;2023-06-14T15:58:21;100632.25;;;23.53;43.68
4392;BME280;2210;51.938;8.488;2023-06-14T16:02:22;100623.97;;;23.48;43.78
4392;BME280;2210;51.938;8.488;2023-06-14T16:06:22;100627.34;;;23.68;43.91
4392;BME280;2210;51.938;8.488;2023-06-14T16:10:22;100626.47;;;23.58;42.98
4392;BME280;2210;51.938;8.488;2023-06-14T16:14:24;100623.19;;;23.65;42.71
4392;BME280;2210;51.938;8.488;2023-06-14T16:18:24;100614.88;;;23.60;43.35
4392;BME280;2210;51.938;8.488;2023-06-14T16:22:24;100608.78;;;23.67;43.17
4392;BME280;2210;51.938;8.488;2023-06-14T16:26:24;100613.34;;;23.77;43.49
4392;BME280;2210;51.938;8.488;2023-06-14T16:30:25;100619.22;;;23.66;43.16
4392;BME280;2210;51.938;8.488;2023-06-14T16:34:26;100617.69;;;23.51;43.28
4392;BME280;2210;51.938;8.488;2023-06-14T16:38:28;100617.31;;;23.44;43.22
4392;BME280;2210;51.938;8.488;2023-06-14T16:42:28;100620.34;;;23.56;43.44
4392;BME280;2210;51.938;8.488;2023-06-14T16:46:29;100615.13;;;23.41;42.99
4392;BME280;2210;51.938;8.488;2023-06-14T16:50:30;100623.44;;;23.46;43.82
4392;BME280;2210;51.938;8.488;2023-06-14T16:54:31;100614.50;;;23.44;42.50
4392;BME280;2210;51.938;8.488;2023-06-14T16:58:31;100629.06;;;23.46;41.98
4392;BME280;2210;51.938;8.488;2023-06-14T17:02:31;100624.78;;;23.49;43.33
4392;BME280;2210;51.938;8.488;2023-06-14T17:06:31;100622.66;;;23.54;42.17
4392;BME280;2210;51.938;8.488;2023-06-14T17:10:32;100634.09;;;23.58;43.76
4392;BME280;2210;51.938;8.488;2023-06-14T17:14:32;100630.72;;;23.47;42.81
4392;BME280;2210;51.938;8.488;2023-06-14T17:18:35;100638.47;;;23.42;42.40
4392;BME280;2210;51.938;8.488;2023-06-14T17:22:36;100645.38;;;23.35;42.32
4392;BME280;2210;51.938;8.488;2023-06-14T17:26:36;100652.31;;;23.29;42.04
4392;BME280;2210;51.938;8.488;2023-06-14T17:30:36;100642.84;;;23.25;42.13
4392;BME280;2210;51.938;8.488;2023-06-14T17:34:37;100643.34;;;23.27;42.37
4392;BME280;2210;51.938;8.488;2023-06-14T17:38:37;100644.00;;;23.24;42.49
4392;BME280;2210;51.938;8.488;2023-06-14T17:42:37;100644.56;;;23.35;43.33
4392;BME280;2210;51.938;8.488;2023-06-14T17:46:43;100643.22;;;23.32;43.89
4392;BME280;2210;51.938;8.488;2023-06-14T17:50:44;100650.31;;;23.30;44.09
4392;BME280;2210;51.938;8.488;2023-06-14T17:54:45;100651.88;;;23.13;44.04
4392;BME280;2210;51.938;8.488;2023-06-14T17:58:46;100653.28;;;23.11;43.97
4392;BME280;2210;51.938;8.488;2023-06-14T18:02:46;100648.13;;;23.04;44.77
4392;BME280;2210;51.938;8.488;2023-06-14T18:06:48;100656.66;;;22.99;44.37
4392;BME280;2210;51.938;8.488;2023-06-14T18:14:51;100664.19;;;22.89;44.19
4392;BME280;2210;51.938;8.488;2023-06-14T18:18:57;100669.13;;;22.84;45.14
4392;BME280;2210;51.938;8.488;2023-06-14T18:23:00;100662.78;;;22.78;44.94
4392;BME280;2210;51.938;8.488;2023-06-14T18:27:04;100670.91;;;22.80;45.10
4392;BME280;2210;51.938;8.488;2023-06-14T18:31:05;100671.75;;;22.66;43.63
4392;BME280;2210;51.938;8.488;2023-06-14T18:35:08;100672.28;;;22.68;43.61
4392;BME280;2210;51.938;8.488;2023-06-14T18:39:08;100677.22;;;22.63;44.52
4392;BME280;2210;51.938;8.488;2023-06-14T18:43:09;100678.03;;;22.63;45.48
4392;BME280;2210;51.938;8.488;2023-06-14T18:47:11;100678.16;;;22.44;45.04
4392;BME280;2210;51.938;8.488;2023-06-14T18:51:12;100674.09;;;22.36;45.71
4392;BME280;2210;51.938;8.488;2023-06-14T18:55:18;100678.97;;;22.31;45.52
4392;BME280;2210;51.938;8.488;2023-06-14T18:59:18;100677.31;;;22.30;45.03
4392;BME280;2210;51.938;8.488;2023-06-14T19:03:18;100678.25;;;22.25;45.50
4392;BME280;2210;51.938;8.488;2023-06-14T19:07:19;100675.66;;;22.15;45.78
4392;BME280;2210;51.938;8.488;2023-06-14T19:11:19;100692.00;;;22.13;45.35
4392;BME280;2210;51.938;8.488;2023-06-14T19:15:19;100693.22;;;22.06;45.64
4392;BME280;2210;51.938;8.488;2023-06-14T19:19:23;100696.13;;;22.01;45.66
4392;BME280;2210;51.938;8.488;2023-06-14T19:23:23;100691.22;;;21.93;46.58
4392;BME280;2210;51.938;8.488;2023-06-14T19:27:24;100691.13;;;21.84;45.85
4392;BME280;2210;51.938;8.488;2023-06-14T19:31:25;100696.94;;;21.74;46.34
4392;BME280;2210;51.938;8.488;2023-06-14T19:35:25;100695.88;;;21.70;46.40
4392;BME280;2210;51.938;8.488;2023-06-14T19:39:25;100709.16;;;21.64;46.85
4392;BME280;2210;51.938;8.488;2023-06-14T19:43:26;100705.63;;;21.59;47.33
4392;BME280;2210;51.938;8.488;2023-06-14T19:47:29;100713.50;;;21.56;47.56
4392;BME280;2210;51.938;8.488;2023-06-14T19:51:38;100710.78;;;21.51;48.94
4392;BME280;2210;51.938;8.488;2023-06-14T19:55:38;100723.84;;;21.42;49.96
4392;BME280;2210;51.938;8.488;2023-06-14T19:59:39;100729.59;;;21.32;50.14
4392;BME280;2210;51.938;8.488;2023-06-14T20:03:46;100726.94;;;21.21;50.43
4392;BME280;2210;51.938;8.488;2023-06-14T20:07:49;100724.75;;;21.18;50.95
4392;BME280;2210;51.938;8.488;2023-06-14T20:11:49;100731.69;;;21.07;50.97
4392;BME280;2210;51.938;8.488;2023-06-14T20:15:49;100738.84;;;20.94;50.78
4392;BME280;2210;51.938;8.488;2023-06-14T20:19:49;100744.38;;;20.80;51.95
4392;BME280;2210;51.938;8.488;2023-06-14T20:23:53;100742.19;;;20.77;52.21
4392;BME280;2210;51.938;8.488;2023-06-14T20:27:53;100749.63;;;20.63;53.11
4392;BME280;2210;51.938;8.488;2023-06-14T20:31:53;100740.88;;;20.45;53.51
4392;BME280;2210;51.938;8.488;2023-06-14T20:35:53;100747.09;;;20.42;53.50
4392;BME280;2210;51.938;8.488;2023-06-14T20:39:54;100745.00;;;20.29;54.57
4392;BME280;2210;51.938;8.488;2023-06-14T20:44:02;100750.13;;;20.21;54.70
4392;BME280;2210;51.938;8.488;2023-06-14T20:48:03;100750.88;;;20.03;55.54
4392;BME280;2210;51.938;8.488;2023-06-14T20:52:03;100746.97;;;20.04;55.09
4392;BME280;2210;51.938;8.488;2023-06-14T20:56:10;100744.28;;;19.88;55.79
4392;BME280;2210;51.938;8.488;2023-06-14T21:00:11;100747.41;;;19.87;55.69
4392;BME280;2210;51.938;8.488;2023-06-14T21:04:17;100752.16;;;19.86;56.15
4392;BME280;2210;51.938;8.488;2023-06-14T21:08:18;100752.00;;;19.73;57.01
4392;BME280;2210;51.938;8.488;2023-06-14T21:12:18;100759.63;;;19.62;56.52
4392;BME280;2210;51.938;8.488;2023-06-14T21:16:18;100747.06;;;19.59;57.42
4392;BME280;2210;51.938;8.488;2023-06-14T21:20:22;100747.94;;;19.54;57.47
4392;BME280;2210;51.938;8.488;2023-06-14T21:24:23;100748.56;;;19.46;58.04
4392;BME280;2210;51.938;8.488;2023-06-14T21:28:26;100746.22;;;19.24;58.94
4392;BME280;2210;51.938;8.488;2023-06-14T21:32:26;100751.00;;;19.24;59.03
4392;BME280;2210;51.938;8.488;2023-06-14T21:36:26;100752.19;;;19.07;59.45
4392;BME280;2210;51.938;8.488;2023-06-14T21:40:27;100764.53;;;19.06;59.60
4392;BME280;2210;51.938;8.488;2023-06-14T21:44:27;100758.97;;;19.01;59.38
4392;BME280;2210;51.938;8.488;2023-06-14T21:48:27;100757.88;;;18.92;60.69